Stations météo

Publicité
Embrun, France (7591): Température de l'air & dewpoint: 12.02.2020 07:00:00 - 18.02.2020 07:00:00 (CET)Embrun, France (7591): Température de l'air 5cm: 12.02.2020 07:00:00 - 18.02.2020 07:00:00 (CET)Embrun, France (7591): Température de l'air -20cm & Température de l'air -100cm: 12.02.2020 07:00:00 - 18.02.2020 07:00:00 (CET)Embrun, France (7591): Vitesse du vent & gusts: 12.02.2020 07:00:00 - 18.02.2020 07:00:00 (CET)Embrun, France (7591): Direction du vent: 12.02.2020 07:00:00 - 18.02.2020 07:00:00 (CET)Embrun, France (7591): visibility: 12.02.2020 07:00:00 - 18.02.2020 07:00:00 (CET)Embrun, France (7591): Ensoleillement: 12.02.2020 07:00:00 - 18.02.2020 07:00:00 (CET)Embrun, France (7591): Quantités de précipitations: 12.02.2020 07:00:00 - 18.02.2020 07:00:00 (CET)
Date & Time tt [°C] td [°C] tt 5cm [°C] tt -20cm [°C] tt -100cm [°C] ff [km/h] ff [knt] fx [km/h] fx [knt] dd vv [km] sd [min] rr [mm]
18.02.2020 07:00:00 1,2 -1,4 -1,4 5,8 6,5 4 2 19 11 N 20 0 0,0
18.02.2020 06:00:00 1,1 -1,3 -2,5 5,8 6,5 6 4 14 8 N 20 0 0,0
18.02.2020 05:00:00 0,8 -0,8 -1,6 5,8 6,4 4 2 10 5 WNW 20 0 0,0
18.02.2020 04:00:00 1,8 -0,8 -0,9 5,8 6,5 0 0 8 5 N 20 0 0,0
18.02.2020 03:00:00 3,0 -0,5 0,3 5,8 6,5 3 2 15 8 NNE 20 0 0,0
18.02.2020 02:00:00 3,4 -0,6 0,3 5,8 6,5 6 4 10 5 N 20 0 0,0
18.02.2020 01:00:00 4,1 0,8 0,6 5,8 6,5 3 2 9 5 SW 20 0 0,0
18.02.2020 00:00:00 5,3 1,9 2,2 5,8 6,5 4 2 10 5 WSW 20 0 0,0
17.02.2020 23:00:00 6,9 2,2 4,9 5,7 6,5 8 5 26 14 SSW 20 0 0,0
17.02.2020 22:00:00 7,4 5,5 6,3 5,7 6,5 19 11 30 16 SSW 19 0 0,0
17.02.2020 21:00:00 7,8 5,8 7,0 5,6 6,4 16 9 26 14 SSW 20 0 0,0
17.02.2020 20:00:00 8,5 4,5 7,9 5,6 6,5 14 7 26 14 S 20 0 0,0
17.02.2020 19:00:00 8,9 4,1 8,1 5,5 6,4 7 4 18 10 SSW 20 0 0,0
17.02.2020 18:00:00 9,2 4,0 8,7 5,5 6,4 6 4 14 8 S 20 0 0,0
17.02.2020 17:00:00 9,9 4,1 10,1 5,4 6,4 8 4 21 11 S 20 0 0,0
17.02.2020 16:00:00 10,7 4,2 11,8 5,4 6,5 10 5 23 12 SSW 20 16 0,0
17.02.2020 15:00:00 10,5 3,7 11,3 5,4 6,4 11 6 28 15 SSW 20 0 0,0
17.02.2020 14:00:00 10,3 3,8 11,4 5,4 6,4 14 7 34 19 SSW 20 0 0,0
17.02.2020 13:00:00 9,6 3,1 12,6 5,3 6,4 8 4 15 8 SSW 20 0 0,0
17.02.2020 12:00:00 9,6 2,4 11,8 5,3 6,4 5 3 12 7 SSW 20 0 0,0
17.02.2020 11:00:00 8,7 1,8 11,4 5,4 6,4 0 0 19 11 N 20 2 0,0
17.02.2020 10:00:00 8,5 1,9 6,9 5,4 6,4 11 6 22 12 NNE 20 56 0,0
17.02.2020 09:00:00 5,3 1,0 3,3 5,4 6,4 10 5 23 12 NNE 20 1 0,0
17.02.2020 08:00:00 3,3 0,5 2,9 5,4 6,4 9 5 19 10 NE 20 0 0,0
17.02.2020 07:00:00 3,2 0,8 2,6 5,4 6,5 9 5 18 10 NE 20 0 0,0
17.02.2020 06:00:00 3,0 0,9 2,3 5,5 6,5 9 5 15 8 NE 20 0 0,0
17.02.2020 05:00:00 3,0 0,9 1,4 5,5 6,4 6 3 11 6 NNE 20 0 0,0
17.02.2020 04:00:00 2,1 0,9 -1,3 5,5 6,4 5 3 8 5 NNE 20 0 0,0
17.02.2020 03:00:00 1,5 0,5 -1,4 5,5 6,4 0 0 5 3 N 18 0 0,0
17.02.2020 02:00:00 2,1 0,6 -0,7 5,5 6,4 2 1 10 5 SE 20 0 0,0
17.02.2020 01:00:00 2,9 0,9 -0,9 5,5 6,4 7 4 11 6 NNE 20 0 0,0
17.02.2020 00:00:00 3,4 1,3 0,1 5,5 6,4 4 2 8 4 N 14 0 0,0
16.02.2020 23:00:00 3,9 1,4 0,8 5,5 6,4 2 1 5 3 N 20 0 0,0
16.02.2020 22:00:00 4,6 1,8 1,3 5,4 6,4 0 0 10 5 N 20 0 0,0
16.02.2020 21:00:00 5,4 2,0 2,0 5,4 6,5 4 2 6 3 N 16 0 0,0
16.02.2020 20:00:00 7,1 3,0 3,5 5,3 6,4 0 0 9 5 N 19 0 0,0
16.02.2020 19:00:00 8,8 3,2 6,7 5,2 6,4 3 2 21 11 SSW 20 0 0,0
16.02.2020 18:00:00 10,4 3,7 9,6 5,2 6,4 14 8 30 16 SSW 20 37 0,0
16.02.2020 17:00:00 12,0 4,0 12,1 5,1 6,4 16 8 36 19 SSW 20 49 0,0
16.02.2020 16:00:00 13,0 1,9 15,4 5,0 6,4 17 9 31 17 SW 20 57 0,0
16.02.2020 15:00:00 13,5 0,1 17,4 5,0 6,4 13 7 27 15 SSW 20 60 0,0
16.02.2020 14:00:00 13,1 -0,9 15,8 5,0 6,4 16 9 32 17 SSW 20 60 0,0
16.02.2020 13:00:00 11,5 -2,0 13,5 5,0 6,4 14 7 25 13 SSW 20 49 0,0
16.02.2020 12:00:00 11,2 -3,0 15,2 5,0 6,4 11 6 23 13 SSW 20 58 0,0
16.02.2020 11:00:00 9,1 -4,1 10,1 5,1 6,4 11 6 31 17 NE 20 43 0,0
16.02.2020 10:00:00 7,6 -4,5 7,2 5,1 6,4 17 9 30 16 NNE 20 60 0,0
16.02.2020 09:00:00 4,0 -5,0 1,3 5,1 6,4 9 5 27 15 ENE 20 12 0,0
16.02.2020 08:00:00 2,6 -5,5 -1,0 5,2 6,4 14 7 22 12 NE 20 4 0,0
16.02.2020 07:00:00 1,4 -4,5 -0,8 5,2 6,4 5 3 18 10 E 20 0 0,0
16.02.2020 06:00:00 2,9 -5,5 0,9 5,2 6,4 9 5 22 12 NE 20 0 0,0
16.02.2020 05:00:00 3,0 -5,7 -0,1 5,2 6,4 11 6 31 17 NE 20 0 0,0
16.02.2020 04:00:00 2,7 -5,2 -0,2 5,2 6,4 4 2 25 14 NNE 20 0 0,0
16.02.2020 03:00:00 3,1 -4,8 0,4 5,3 6,4 15 8 22 12 NE 20 0 0,0
16.02.2020 02:00:00 3,2 -4,7 0,4 5,2 6,4 6 4 20 11 NE 20 0 0,0
16.02.2020 01:00:00 3,5 -4,7 1,2 5,2 6,4 9 5 19 11 NE 20 0 0,0
16.02.2020 00:00:00 5,1 -4,5 2,8 5,2 6,4 13 7 19 10 NE 20 0 0,0
15.02.2020 23:00:00 5,5 -4,7 3,6 5,2 6,4 10 6 26 14 NE 20 0 0,0
15.02.2020 22:00:00 5,6 -4,6 2,9 5,2 6,4 9 5 22 12 NNE 20 0 0,0
15.02.2020 21:00:00 6,3 -4,2 3,0 5,1 6,4 12 7 19 11 NNE 20 0 0,0
15.02.2020 20:00:00 6,7 -3,6 2,6 5,1 6,4 6 4 11 6 N 20 0 0,0
15.02.2020 19:00:00 8,6 -3,9 4,3 5,0 6,4 4 2 10 6 NNE 20 0 0,0
15.02.2020 18:00:00 11,1 -3,4 6,7 4,9 6,4 3 2 13 7 NW 20 38 0,0
15.02.2020 17:00:00 14,9 -3,5 16,9 4,9 6,4 8 4 23 13 S 20 60 0,0
15.02.2020 16:00:00 15,1 -4,3 17,9 4,8 6,4 12 7 25 13 SSW 20 60 0,0
15.02.2020 15:00:00 15,3 -5,2 20,3 4,8 6,4 10 6 21 12 SSW 20 60 0,0
15.02.2020 14:00:00 13,8 -5,9 20,7 4,8 6,4 9 5 16 8 SSW 20 60 0,0
15.02.2020 13:00:00 12,9 -6,7 19,9 4,8 6,4 6 3 12 6 SSE 20 60 0,0
15.02.2020 12:00:00 11,1 -5,4 17,1 4,9 6,4 4 2 24 13 E 20 60 0,0
15.02.2020 11:00:00 8,7 -5,9 12,5 4,9 6,4 9 5 29 16 NNE 20 60 0,0
15.02.2020 10:00:00 6,2 -7,1 6,3 5,0 6,4 12 7 31 17 NE 20 60 0,0
15.02.2020 09:00:00 3,4 -7,1 0,2 5,0 6,4 13 7 31 17 NNE 20 5 0,0
15.02.2020 08:00:00 1,6 -7,2 -0,6 5,0 6,4 15 8 26 14 NE 20 0 0,0
15.02.2020 07:00:00 2,3 -7,6 -0,7 5,0 6,4 17 9 32 17 NNE 20 0 0,0
15.02.2020 06:00:00 1,8 -7,0 0,1 5,1 6,4 12 6 32 17 NE 20 0 0,0
15.02.2020 05:00:00 3,0 -7,5 1,1 5,1 6,4 22 12 41 22 NNE 20 0 0,0
15.02.2020 04:00:00 2,7 -6,7 0,3 5,1 6,4 19 11 36 19 NNE 20 0 0,0
15.02.2020 03:00:00 2,0 -6,1 0,2 5,1 6,4 14 7 27 14 NNE 20 0 0,0
15.02.2020 02:00:00 2,0 -5,6 0,3 5,1 6,4 13 7 42 23 NE 20 0 0,0
15.02.2020 01:00:00 1,8 -4,7 -0,3 5,1 6,4 12 6 27 15 NNE 20 0 0,0
15.02.2020 00:00:00 2,0 -3,9 -0,7 5,1 6,4 17 9 27 15 NNE 20 0 0,0
14.02.2020 23:00:00 1,9 -3,0 -1,8 5,1 6,4 6 3 11 6 N 20 0 0,0
14.02.2020 22:00:00 2,3 -2,4 -0,6 5,1 6,4 4 2 16 8 NNW 20 0 0,0
14.02.2020 21:00:00 2,6 -1,8 -0,5 5,0 6,4 4 2 8 4 NNW 20 0 0,0
14.02.2020 20:00:00 4,3 -0,9 1,6 4,9 6,4 7 4 13 7 W 20 0 0,0
14.02.2020 19:00:00 6,0 -1,0 2,5 4,9 6,4 9 5 18 10 NNE 20 0 0,0
14.02.2020 18:00:00 8,3 -1,8 5,9 4,8 6,4 5 3 11 6 ESE 20 37 0,0
14.02.2020 17:00:00 12,6 -1,0 14,2 4,7 6,4 6 4 11 6 SSW 20 60 0,0
14.02.2020 16:00:00 13,5 -2,1 18,7 4,7 6,4 0 0 11 6 N 20 60 0,0
14.02.2020 15:00:00 12,6 -2,9 19,3 4,6 6,4 4 2 12 7 SSE 20 60 0,0
14.02.2020 14:00:00 11,9 -1,0 19,1 4,6 6,4 6 3 24 13 SSE 20 60 0,0
14.02.2020 13:00:00 10,4 -2,0 17,1 4,6 6,4 6 4 13 7 SSW 20 60 0,0
14.02.2020 12:00:00 9,0 -0,9 17,1 4,7 6,4 4 2 10 6 SSE 20 60 0,0
14.02.2020 11:00:00 6,4 0,9 12,2 4,7 6,4 6 4 17 9 ENE 20 60 0,0
14.02.2020 10:00:00 4,2 0,7 0,2 4,7 6,4 9 5 20 11 NE 20 60 0,0
14.02.2020 09:00:00 1,0 -0,6 -2,2 4,7 6,4 9 5 16 9 NNE 20 2 0,0
14.02.2020 08:00:00 0,0 -1,3 -2,0 4,7 6,4 2 1 20 11 SE 20 0 0,0
14.02.2020 07:00:00 0,7 -0,5 -2,2 4,7 6,4 16 8 22 12 NNE 20 0 0,0
14.02.2020 06:00:00 0,7 -0,9 -1,9 4,8 6,4 0 0 18 10 N 20 0 0,0
14.02.2020 05:00:00 1,6 -0,5 -0,4 4,8 6,4 7 4 19 10 NE 20 0 0,0
14.02.2020 04:00:00 3,0 -0,3 0,6 4,8 6,4 10 5 26 14 NNE 20 0 0,0
14.02.2020 03:00:00 3,9 -0,5 0,7 4,8 6,4 5 3 27 15 ENE 20 0 0,0
14.02.2020 02:00:00 4,4 0,9 2,0 4,8 6,4 8 4 23 13 SSE 20 0 0,0
14.02.2020 01:00:00 4,7 1,9 2,8 4,8 6,4 16 9 46 25 SSW 20 0 0,0
14.02.2020 00:00:00 3,1 2,5 2,5 4,8 6,4 21 11 33 18 SSW 20 0 1,2
13.02.2020 23:00:00 3,5 2,8 2,6 4,8 6,4 12 6 24 13 SSW 7 0 2,6
13.02.2020 22:00:00 2,7 2,3 1,9 4,8 6,4 8 4 29 16 S 15 0 1,3
13.02.2020 21:00:00 2,0 1,6 1,8 4,8 6,4 5 3 17 9 SSE 2,0 0 2,0
13.02.2020 20:00:00 2,5 1,5 1,8 4,8 6,4 8 5 19 11 SSW 18 0 0,6
13.02.2020 19:00:00 2,4 1,4 1,9 4,8 6,4 9 5 33 18 SW 11 0 1,4
13.02.2020 18:00:00 3,3 1,5 2,6 4,8 6,4 13 7 33 18 S 8 0 1,2
13.02.2020 17:00:00 4,8 1,5 3,6 4,8 6,4 7 4 21 12 SW 13 0 0,4
13.02.2020 16:00:00 5,4 0,2 4,0 4,8 6,4 8 4 15 8 WSW 20 0 0,2
13.02.2020 15:00:00 5,1 -4,2 3,2 4,8 6,4 5 3 12 7 WSW 20 0 0,0
13.02.2020 14:00:00 5,3 -9,0 6,5 4,9 6,4 0 0 15 8 N 20 0 0,0
13.02.2020 13:00:00 5,3 -10,1 6,7 4,9 6,4 9 5 14 7 SSW 20 0 0,0
13.02.2020 12:00:00 5,9 -9,6 4,4 4,9 6,4 3 2 18 10 SSE 20 47 0,0
13.02.2020 11:00:00 2,2 -9,7 4,2 5,0 6,4 7 4 21 11 ENE 20 9 0,0
13.02.2020 10:00:00 1,7 -10,8 0,2 5,0 6,4 13 7 22 12 NNE 20 31 0,0
13.02.2020 09:00:00 -0,4 -10,4 -2,5 5,1 6,4 12 6 20 11 NE 20 39 0,0
13.02.2020 08:00:00 -1,6 -10,7 -3,4 5,2 6,4 11 6 21 11 NE 20 0 0,0
13.02.2020 07:00:00 -0,7 -11,2 -3,7 5,2 6,4 17 9 31 17 NNE 20 0 0,0
13.02.2020 06:00:00 -2,0 -10,3 -5,4 5,2 6,4 13 7 24 13 NE 20 0 0,0
13.02.2020 05:00:00 -2,2 -10,0 -5,6 5,3 6,4 4 2 27 14 N 20 0 0,0
13.02.2020 04:00:00 -2,0 -9,6 -6,0 5,3 6,4 14 7 22 12 NNE 20 0 0,0
13.02.2020 03:00:00 -1,8 -8,8 -5,2 5,4 6,4 2 1 7 4 SW 20 0 0,0
13.02.2020 02:00:00 -1,2 -9,8 -4,0 5,4 6,4 2 1 25 13 ENE 20 0 0,0
13.02.2020 01:00:00 0,2 -9,8 -3,0 5,4 6,4 14 8 26 14 NNE 20 0 0,0
13.02.2020 00:00:00 -0,7 -8,6 -3,8 5,5 6,4 9 5 13 7 NE 20 0 0,0
12.02.2020 23:00:00 -0,6 -7,9 -3,2 5,5 6,4 3 1 13 7 NE 20 0 0,0
12.02.2020 22:00:00 0,4 -7,6 -2,8 5,4 6,3 3 1 9 5 NNE 20 0 0,0
12.02.2020 21:00:00 1,1 -7,4 -2,7 5,4 6,3 5 3 7 4 N 20 0 0,0
12.02.2020 20:00:00 2,4 -6,7 -1,2 5,4 6,4 4 2 17 9 SW 20 0 0,0
12.02.2020 19:00:00 3,3 -7,2 -0,4 5,4 6,3 5 3 11 6 NNE 20 0 0,0
12.02.2020 18:00:00 5,6 -7,6 1,7 5,3 6,3 2 1 9 5 N 20 34 0,0
12.02.2020 17:00:00 9,9 -10,3 11,6 5,2 6,3 5 3 14 7 SSW 20 60 0,0
12.02.2020 16:00:00 10,4 -9,3 16,2 5,2 6,3 6 4 21 11 SW 20 60 0,0
12.02.2020 15:00:00 10,1 -8,1 16,5 5,3 6,3 7 4 19 11 SSW 20 60 0,0
12.02.2020 14:00:00 9,3 -7,0 15,7 5,3 6,3 10 5 23 12 S 20 60 0,0
12.02.2020 13:00:00 8,0 -7,3 15,9 5,3 6,3 10 6 19 10 SSW 20 60 0,0
12.02.2020 12:00:00 7,2 -6,5 14,6 5,4 6,3 4 2 13 7 SSE 20 60 0,0
12.02.2020 11:00:00 5,2 -6,1 10,7 5,4 6,3 6 3 22 12 E 20 60 0,0
12.02.2020 10:00:00 2,8 -4,9 -2,3 5,5 6,3 11 6 22 12 NE 20 54 0,0
12.02.2020 09:00:00 -1,4 -5,3 -3,7 5,5 6,2 4 2 14 8 SE 20 0 0,0
12.02.2020 08:00:00 -1,7 -5,0 -4,0 5,5 6,2 9 5 16 9 NE 20 0 0,0
12.02.2020 07:00:00 -1,1 -5,1 -4,3 5,6 6,3 10 5 15 8 NNE 20 0 0,0

tt = Température de l'air
td = dewpoint
tt 5cm = Température de l'air 5cm
tt -20cm = Température de l'air -20cm
tt -100cm = Température de l'air -100cm
ff = Vitesse du vent
fx = gusts
dd = Direction du vent
vv = visibility
sd = Ensoleillement
rr = Quantités de précipitations

stations d'obs. à proximité